createdAt,value
2024-02-15T00:00:03.092Z,5.32
2024-02-15T00:02:30.245Z,6.10
2024-02-15T00:04:58.014Z,5.18
2024-02-15T00:07:25.038Z,5.53
2024-02-15T00:09:52.644Z,6.63
2024-02-15T00:12:19.847Z,6.65
2024-02-15T00:14:46.963Z,6.20
2024-02-15T00:17:14.265Z,6.40
2024-02-15T00:19:42.986Z,6.25
2024-02-15T00:22:11.058Z,7.13
2024-02-15T00:24:43.151Z,7.10
2024-02-15T00:27:12.394Z,7.18
2024-02-15T00:29:41.763Z,7.70
2024-02-15T00:32:09.324Z,6.65
2024-02-15T00:34:36.607Z,6.45
2024-02-15T00:37:04.067Z,6.38
2024-02-15T00:39:30.870Z,7.05
2024-02-15T00:41:57.730Z,6.15
2024-02-15T00:44:24.764Z,6.82
2024-02-15T00:46:51.978Z,6.53
2024-02-15T00:49:21.879Z,6.30
2024-02-15T00:51:49.004Z,6.85
2024-02-15T00:54:16.599Z,7.07
2024-02-15T00:56:43.605Z,6.53
2024-02-15T00:59:10.886Z,6.72
2024-02-15T01:01:42.189Z,6.90
2024-02-15T01:04:09.275Z,6.25
2024-02-15T01:06:36.150Z,6.18
2024-02-15T01:09:04.534Z,6.53
2024-02-15T01:11:36.161Z,6.70
2024-02-15T01:14:03.108Z,6.07
2024-02-15T01:16:30.188Z,7.40
2024-02-15T01:18:57.217Z,6.68
2024-02-15T01:21:24.188Z,7.07
2024-02-15T01:23:51.184Z,6.80
2024-02-15T01:26:18.037Z,6.78
2024-02-15T01:28:44.940Z,6.57
2024-02-15T01:31:12.591Z,6.53
2024-02-15T01:33:39.634Z,7.22
2024-02-15T01:36:07.203Z,7.10
2024-02-15T01:38:34.167Z,7.55
2024-02-15T01:41:01.076Z,6.93
2024-02-15T01:43:27.891Z,6.50
2024-02-15T01:45:55.270Z,7.05
2024-02-15T01:48:22.317Z,6.40
2024-02-15T01:50:49.974Z,6.32
2024-02-15T01:53:18.647Z,5.65
2024-02-15T01:55:45.619Z,4.82
2024-02-15T01:58:12.819Z,5.10
2024-02-15T02:00:40.925Z,5.00
2024-02-15T02:03:11.002Z,5.63
2024-02-15T02:05:38.563Z,4.93
2024-02-15T02:08:10.627Z,4.75
2024-02-15T02:10:41.204Z,4.55
2024-02-15T02:13:08.214Z,4.30
2024-02-15T02:15:35.697Z,3.88
2024-02-15T02:18:03.143Z,4.15
2024-02-15T02:20:30.465Z,4.38
2024-02-15T02:23:14.587Z,3.97
2024-02-15T02:25:43.677Z,4.53
2024-02-15T02:28:11.317Z,4.47
2024-02-15T02:30:38.467Z,3.78
2024-02-15T02:33:08.713Z,4.38
2024-02-15T02:35:35.603Z,3.40
2024-02-15T02:38:03.877Z,3.75
2024-02-15T02:40:30.789Z,3.60
2024-02-15T02:43:00.442Z,3.72
2024-02-15T02:45:27.360Z,3.65
2024-02-15T02:47:55.155Z,3.70
2024-02-15T02:50:24.079Z,3.80
2024-02-15T02:52:51.503Z,3.60
2024-02-15T02:55:18.786Z,3.45
2024-02-15T02:57:45.597Z,3.30
2024-02-15T03:00:16.318Z,3.90
2024-02-15T03:02:47.759Z,4.38
2024-02-15T03:05:14.972Z,4.43
2024-02-15T03:07:42.317Z,3.75
2024-02-15T03:10:11.078Z,4.20
2024-02-15T03:12:38.942Z,3.90
2024-02-15T03:15:12.539Z,3.80
2024-02-15T03:17:42.752Z,4.07
2024-02-15T03:20:28.733Z,3.10
2024-02-15T03:23:00.049Z,2.83
2024-02-15T03:25:30.074Z,2.95
2024-02-15T03:28:04.553Z,2.05
2024-02-15T03:30:35.288Z,2.10
2024-02-15T03:33:06.683Z,1.95
2024-02-15T03:35:34.250Z,1.98
2024-02-15T03:38:02.218Z,2.17
2024-02-15T03:40:30.229Z,1.90
2024-02-15T03:42:57.711Z,2.35
2024-02-15T03:45:26.320Z,2.88
2024-02-15T03:47:54.143Z,2.58
2024-02-15T03:50:23.251Z,2.72
2024-02-15T03:52:51.502Z,2.78
2024-02-15T03:55:18.971Z,2.78
2024-02-15T03:57:47.181Z,2.88
2024-02-15T04:00:22.858Z,2.40
2024-02-15T04:02:50.759Z,2.78
2024-02-15T04:05:20.109Z,2.75
2024-02-15T04:07:47.371Z,2.65
2024-02-15T04:10:14.366Z,2.45
2024-02-15T04:12:43.679Z,2.60
2024-02-15T04:15:14.472Z,2.42
2024-02-15T04:17:43.653Z,2.60
2024-02-15T04:20:13.443Z,2.75
2024-02-15T04:22:43.803Z,2.60
2024-02-15T04:25:12.092Z,2.33
2024-02-15T04:27:40.022Z,2.63
2024-02-15T04:30:09.295Z,3.13
2024-02-15T04:32:37.898Z,2.60
2024-02-15T04:35:08.417Z,3.05
2024-02-15T04:37:37.800Z,2.75
2024-02-15T04:40:12.391Z,3.00
2024-02-15T04:42:42.215Z,3.45
2024-02-15T04:45:11.438Z,2.83
2024-02-15T04:47:38.596Z,3.15
2024-02-15T04:50:07.522Z,3.05
2024-02-15T04:52:34.818Z,3.10
2024-02-15T04:55:02.341Z,3.25
2024-02-15T04:57:34.458Z,3.20
2024-02-15T05:00:01.355Z,3.30
2024-02-15T05:02:28.332Z,3.13
2024-02-15T05:04:58.376Z,3.63
2024-02-15T05:07:25.439Z,3.60
2024-02-15T05:09:53.369Z,4.18
2024-02-15T05:12:27.075Z,4.53
2024-02-15T05:14:55.052Z,4.60
2024-02-15T05:17:23.505Z,4.65
2024-02-15T05:19:53.738Z,4.88
2024-02-15T05:22:20.680Z,5.07
2024-02-15T05:24:47.488Z,5.00
2024-02-15T05:27:14.524Z,5.50
2024-02-15T05:29:44.656Z,5.68
2024-02-15T05:32:12.089Z,6.03
2024-02-15T05:34:41.523Z,5.22
2024-02-15T05:37:08.944Z,6.10
2024-02-15T05:39:35.796Z,6.88
2024-02-15T05:42:02.901Z,6.38
2024-02-15T05:44:29.952Z,7.00
2024-02-15T05:46:57.667Z,6.53
2024-02-15T05:49:25.441Z,6.97
2024-02-15T05:51:54.929Z,6.47
2024-02-15T05:54:24.483Z,6.85
2024-02-15T05:56:53.896Z,6.35
2024-02-15T05:59:22.164Z,6.80
2024-02-15T06:01:52.284Z,6.93
2024-02-15T06:04:19.747Z,6.53
2024-02-15T06:06:50.550Z,6.75
2024-02-15T06:09:18.628Z,6.88
2024-02-15T06:11:47.081Z,7.28
2024-02-15T06:14:14.332Z,7.45
2024-02-15T06:16:47.147Z,7.10
2024-02-15T06:19:16.082Z,6.85
2024-02-15T06:21:43.660Z,7.40
2024-02-15T06:24:11.854Z,6.90
2024-02-15T06:26:38.967Z,6.85
2024-02-15T06:29:24.591Z,7.53
2024-02-15T06:32:09.759Z,7.60
2024-02-15T06:34:55.142Z,6.55
2024-02-15T06:37:57.057Z,7.53
2024-02-15T06:40:23.939Z,6.70
2024-02-15T06:42:51.500Z,6.45
2024-02-15T06:45:19.258Z,6.18
2024-02-15T06:47:46.306Z,6.60
2024-02-15T06:50:18.231Z,6.30
2024-02-15T06:52:46.245Z,6.07
2024-02-15T06:55:13.572Z,5.22
2024-02-15T06:57:43.142Z,6.22
2024-02-15T07:00:16.532Z,5.65
2024-02-15T07:02:45.778Z,4.80
2024-02-15T07:05:13.244Z,6.05
2024-02-15T07:07:40.509Z,5.07
2024-02-15T07:10:07.975Z,5.53
2024-02-15T07:12:34.949Z,5.03
2024-02-15T07:15:07.296Z,5.72
2024-02-15T07:17:34.350Z,5.00
2024-02-15T07:20:01.435Z,4.90
2024-02-15T07:22:28.333Z,5.00
2024-02-15T07:24:55.180Z,5.30
2024-02-15T07:27:24.869Z,5.00
2024-02-15T07:29:51.893Z,5.82
2024-02-15T07:32:19.265Z,4.95
2024-02-15T07:34:46.941Z,6.47
2024-02-15T07:37:14.067Z,4.93
2024-02-15T07:39:41.412Z,4.95
2024-02-15T07:42:10.000Z,4.78
2024-02-15T07:44:38.020Z,4.28
2024-02-15T07:47:06.026Z,5.43
2024-02-15T07:49:35.007Z,4.60
2024-02-15T07:52:02.048Z,4.90
2024-02-15T07:54:31.106Z,4.82
2024-02-15T07:56:59.514Z,4.15
2024-02-15T07:59:26.678Z,4.05
2024-02-15T08:01:53.612Z,5.07
2024-02-15T08:04:24.504Z,4.10
2024-02-15T08:06:54.836Z,4.25
2024-02-15T08:09:25.288Z,3.78
2024-02-15T08:11:52.560Z,4.55
2024-02-15T08:14:21.894Z,3.97
2024-02-15T08:16:48.794Z,4.88
2024-02-15T08:19:15.864Z,4.57
2024-02-15T08:21:43.502Z,3.97
2024-02-15T08:24:10.722Z,4.35
2024-02-15T08:26:43.242Z,4.28
2024-02-15T08:29:10.724Z,4.15
2024-02-15T08:31:37.950Z,4.07
2024-02-15T08:34:11.541Z,4.00
2024-02-15T08:36:41.112Z,4.78
2024-02-15T08:39:09.613Z,3.78
2024-02-15T08:41:36.804Z,4.18
2024-02-15T08:44:07.363Z,5.03
2024-02-15T08:46:34.264Z,4.65
2024-02-15T08:49:02.182Z,4.40
2024-02-15T08:51:29.338Z,4.55
2024-02-15T08:53:58.871Z,4.43
2024-02-15T08:56:26.514Z,5.10
2024-02-15T08:58:53.432Z,4.45
2024-02-15T09:01:20.448Z,4.95
2024-02-15T09:03:47.520Z,5.38
2024-02-15T09:06:14.804Z,4.75
2024-02-15T09:08:41.914Z,4.50
2024-02-15T09:11:13.422Z,4.70
2024-02-15T09:13:40.442Z,4.88
2024-02-15T09:16:07.459Z,4.95
2024-02-15T09:18:35.164Z,5.45
2024-02-15T09:21:02.308Z,4.43
2024-02-15T09:23:29.179Z,4.35
2024-02-15T09:25:56.102Z,4.82
2024-02-15T09:28:25.899Z,4.82
2024-02-15T09:30:52.989Z,5.03
2024-02-15T09:33:21.556Z,4.90
2024-02-15T09:35:49.343Z,4.70
2024-02-15T09:38:18.146Z,5.60
2024-02-15T09:40:45.770Z,5.38
2024-02-15T09:43:14.571Z,5.50
2024-02-15T09:45:41.656Z,4.65
2024-02-15T09:48:11.825Z,6.43
2024-02-15T09:50:44.138Z,4.90
2024-02-15T09:53:11.198Z,4.90
2024-02-15T09:55:42.725Z,4.60
2024-02-15T09:58:10.584Z,3.70
2024-02-15T10:00:37.840Z,3.85
2024-02-15T10:03:08.118Z,4.47
2024-02-15T10:05:36.040Z,4.10
2024-02-15T10:08:04.237Z,2.80
2024-02-15T10:10:31.086Z,3.58
2024-02-15T10:12:58.213Z,3.45
2024-02-15T10:15:36.441Z,3.10
2024-02-15T10:18:06.355Z,2.78
2024-02-15T10:20:35.630Z,3.17
2024-02-15T10:23:03.310Z,2.92
2024-02-15T10:25:30.821Z,2.53
2024-02-15T10:28:08.766Z,2.72
2024-02-15T10:30:37.396Z,2.53
2024-02-15T10:33:05.494Z,2.22
2024-02-15T10:35:36.610Z,2.45
2024-02-15T10:38:09.143Z,2.53
2024-02-15T10:40:36.400Z,2.95
2024-02-15T10:43:09.569Z,2.95
2024-02-15T10:45:41.156Z,2.60
2024-02-15T10:48:17.004Z,2.60
2024-02-15T10:50:49.314Z,2.50
2024-02-15T10:53:28.832Z,2.20
2024-02-15T10:56:18.215Z,2.38
2024-02-15T10:59:17.537Z,2.50
2024-02-15T11:01:49.395Z,2.15
2024-02-15T11:04:18.897Z,1.80
2024-02-15T11:06:46.854Z,1.92
2024-02-15T11:09:15.096Z,1.73
2024-02-15T11:11:42.891Z,1.70
2024-02-15T11:14:27.787Z,1.65
2024-02-15T11:16:54.749Z,1.80
2024-02-15T11:19:34.112Z,1.85
2024-02-15T11:22:04.930Z,2.05
2024-02-15T11:24:37.514Z,1.92
2024-02-15T11:27:06.634Z,1.92
2024-02-15T11:29:57.626Z,2.40
2024-02-15T11:32:57.513Z,2.20
2024-02-15T11:35:26.814Z,1.80
2024-02-15T11:37:59.594Z,1.65
2024-02-15T11:40:50.650Z,1.33
2024-02-15T11:43:53.493Z,1.45
2024-02-15T11:46:21.192Z,1.35
2024-02-15T11:48:52.567Z,1.40
2024-02-15T11:51:38.713Z,1.63
2024-02-15T11:54:07.945Z,1.50
2024-02-15T11:57:06.041Z,1.92
2024-02-15T11:59:44.414Z,1.90
2024-02-15T12:02:30.194Z,1.38
2024-02-15T12:05:15.512Z,1.67
2024-02-15T12:08:01.225Z,1.52
2024-02-15T12:10:46.539Z,1.80
2024-02-15T12:13:37.564Z,1.52
2024-02-15T12:16:23.250Z,1.65
2024-02-15T12:18:54.207Z,1.73
2024-02-15T12:21:29.214Z,1.38
2024-02-15T12:23:57.426Z,1.95
2024-02-15T12:26:25.238Z,1.60
2024-02-15T12:28:56.314Z,1.50
2024-02-15T12:31:27.659Z,1.92
2024-02-15T12:34:08.604Z,1.58
2024-02-15T12:36:39.809Z,1.40
2024-02-15T12:39:18.847Z,1.30
2024-02-15T12:41:51.317Z,1.80
2024-02-15T12:44:21.742Z,1.13
2024-02-15T12:46:49.313Z,1.30
2024-02-15T12:49:22.241Z,1.17
2024-02-15T12:51:53.972Z,1.35
2024-02-15T12:54:22.676Z,1.33
2024-02-15T12:56:55.543Z,1.35
2024-02-15T12:59:22.496Z,1.40
2024-02-15T13:01:49.926Z,1.92
2024-02-15T13:04:26.533Z,1.40
2024-02-15T13:09:20.464Z,1.20
2024-02-15T13:11:48.397Z,1.55
2024-02-15T13:14:15.236Z,1.40
2024-02-15T13:16:44.640Z,1.35
2024-02-15T13:19:11.609Z,1.10
2024-02-15T13:21:38.460Z,1.90
2024-02-15T13:24:06.255Z,1.58
2024-02-15T13:26:35.275Z,1.63
2024-02-15T13:29:02.101Z,2.00
2024-02-15T13:31:28.896Z,1.40
2024-02-15T13:33:55.910Z,1.90
2024-02-15T13:36:23.339Z,1.50
2024-02-15T13:38:52.907Z,2.00
2024-02-15T13:41:19.973Z,2.05
2024-02-15T13:43:47.028Z,1.98
2024-02-15T13:46:13.907Z,1.75
2024-02-15T13:48:42.019Z,2.10
2024-02-15T13:51:10.671Z,2.15
2024-02-15T13:53:37.719Z,2.03
2024-02-15T13:56:06.624Z,2.10
2024-02-15T13:58:34.244Z,1.42
2024-02-15T14:01:04.453Z,2.10
2024-02-15T14:03:31.917Z,2.20
2024-02-15T14:05:59.148Z,2.17
2024-02-15T14:08:26.992Z,2.03
2024-02-15T14:10:53.905Z,2.15
2024-02-15T14:13:23.212Z,1.75
2024-02-15T14:15:50.445Z,2.17
2024-02-15T14:18:20.955Z,2.70
2024-02-15T14:20:49.011Z,2.10
2024-02-15T14:23:16.716Z,2.45
2024-02-15T14:25:44.463Z,2.00
2024-02-15T14:28:11.677Z,2.55
2024-02-15T14:30:58.947Z,3.03
2024-02-15T14:33:33.119Z,2.50
2024-02-15T14:36:01.768Z,2.17
2024-02-15T14:38:29.100Z,3.00
2024-02-15T14:40:57.082Z,2.70
2024-02-15T14:43:27.104Z,2.70
2024-02-15T14:45:55.449Z,2.65
2024-02-15T14:48:22.922Z,2.50
2024-02-15T14:50:52.720Z,2.42
2024-02-15T14:53:20.418Z,2.45
2024-02-15T14:55:47.777Z,2.47
2024-02-15T14:58:18.316Z,2.60
2024-02-15T15:00:46.741Z,2.30
2024-02-15T15:03:15.083Z,2.70
2024-02-15T15:06:02.191Z,2.88
2024-02-15T15:11:33.297Z,2.50
2024-02-15T15:14:00.211Z,2.42
2024-02-15T15:16:29.399Z,2.60
2024-02-15T15:18:57.587Z,2.30
2024-02-15T15:21:25.348Z,2.38
2024-02-15T15:23:53.331Z,2.75
2024-02-15T15:26:21.750Z,2.47
2024-02-15T15:28:49.662Z,2.40
2024-02-15T15:31:17.150Z,3.22
2024-02-15T15:33:45.150Z,3.10
2024-02-15T15:36:12.846Z,2.95
2024-02-15T15:38:40.824Z,2.70
2024-02-15T15:41:10.862Z,2.88
2024-02-15T15:43:38.971Z,2.63
2024-02-15T15:46:06.752Z,2.33
2024-02-15T15:48:34.661Z,2.53
2024-02-15T15:51:06.581Z,2.33
2024-02-15T15:53:35.536Z,2.20
2024-02-15T15:56:02.986Z,2.00
2024-02-15T15:58:31.242Z,2.28
2024-02-15T16:00:58.214Z,2.50
2024-02-15T16:03:25.226Z,2.42
2024-02-15T16:05:52.490Z,2.50
2024-02-15T16:08:19.422Z,2.35
2024-02-15T16:10:46.907Z,2.55
2024-02-15T16:13:14.111Z,2.53
2024-02-15T16:15:45.101Z,3.03
2024-02-15T16:18:12.178Z,3.22
2024-02-15T16:20:39.802Z,2.72
2024-02-15T16:23:07.743Z,3.38
2024-02-15T16:25:35.452Z,2.72
2024-02-15T16:28:03.701Z,3.10
2024-02-15T16:30:30.698Z,3.10
2024-02-15T16:32:57.724Z,3.08
2024-02-15T16:35:24.667Z,3.28
2024-02-15T16:37:51.605Z,3.17
2024-02-15T16:40:18.477Z,3.38
2024-02-15T16:42:48.821Z,3.55
2024-02-15T16:45:20.990Z,2.55
2024-02-15T16:47:57.897Z,3.45
2024-02-15T16:50:25.631Z,3.53
2024-02-15T16:52:53.224Z,3.40
2024-02-15T16:55:29.595Z,3.25
2024-02-15T16:58:09.572Z,3.28
2024-02-15T17:00:38.030Z,3.20
2024-02-15T17:03:08.190Z,3.20
2024-02-15T17:05:39.574Z,3.47
2024-02-15T17:08:08.322Z,3.42
2024-02-15T17:10:36.976Z,3.33
2024-02-15T17:13:05.497Z,3.20
2024-02-15T17:15:33.191Z,4.00
2024-02-15T17:18:00.415Z,3.92
2024-02-15T17:20:27.410Z,3.60
2024-02-15T17:22:54.399Z,3.40
2024-02-15T17:25:26.463Z,3.28
2024-02-15T17:27:56.900Z,3.50
2024-02-15T17:30:25.019Z,4.10
2024-02-15T17:32:52.276Z,4.20
2024-02-15T17:35:20.505Z,4.60
2024-02-15T17:37:47.365Z,3.90
2024-02-15T17:40:15.295Z,3.97
2024-02-15T17:42:43.910Z,3.90
2024-02-15T17:45:12.833Z,4.93
2024-02-15T17:47:41.644Z,4.68
2024-02-15T17:50:15.506Z,5.40
2024-02-15T17:52:45.085Z,4.85
2024-02-15T17:55:12.304Z,5.10
2024-02-15T17:57:39.936Z,5.45
2024-02-15T18:00:21.089Z,4.80
2024-02-15T18:02:52.786Z,4.70
2024-02-15T18:05:21.492Z,4.80
2024-02-15T18:07:49.912Z,5.55
2024-02-15T18:10:21.526Z,5.30
2024-02-15T18:12:48.546Z,5.85
2024-02-15T18:15:26.068Z,4.90
2024-02-15T18:17:58.153Z,5.88
2024-02-15T18:20:26.108Z,5.60
2024-02-15T18:22:53.720Z,5.50
2024-02-15T18:25:21.078Z,5.70
2024-02-15T18:27:48.734Z,5.32
2024-02-15T18:30:19.914Z,5.72
2024-02-15T18:32:48.259Z,5.78
2024-02-15T18:35:17.860Z,5.40
2024-02-15T18:37:46.813Z,4.88
2024-02-15T18:40:22.787Z,5.28
2024-02-15T18:42:52.886Z,5.93
2024-02-15T18:45:20.498Z,5.25
2024-02-15T18:47:47.668Z,5.60
2024-02-15T18:50:17.057Z,5.43
2024-02-15T18:52:44.754Z,5.25
2024-02-15T18:55:13.489Z,6.00
2024-02-15T18:57:40.513Z,5.82
2024-02-15T19:00:16.315Z,6.00
2024-02-15T19:02:53.273Z,5.60
2024-02-15T19:05:23.870Z,5.72
2024-02-15T19:07:52.135Z,6.45
2024-02-15T19:10:21.121Z,7.50
2024-02-15T19:12:48.300Z,5.85
2024-02-15T19:15:15.969Z,6.22
2024-02-15T19:17:43.145Z,6.20
2024-02-15T19:20:10.719Z,7.05
2024-02-15T19:22:41.441Z,6.65
2024-02-15T19:25:08.480Z,6.55
2024-02-15T19:27:35.462Z,6.82
2024-02-15T19:30:03.949Z,7.40
2024-02-15T19:32:30.876Z,7.07
2024-02-15T19:34:57.945Z,6.70
2024-02-15T19:37:25.555Z,8.10
2024-02-15T19:39:53.812Z,8.75
2024-02-15T19:42:20.850Z,6.90
2024-02-15T19:44:48.064Z,8.20
2024-02-15T19:47:19.610Z,9.63
2024-02-15T19:49:47.263Z,8.07
2024-02-15T19:52:15.939Z,9.13
2024-02-15T19:54:42.847Z,8.48
2024-02-15T19:57:09.770Z,8.82
2024-02-15T19:59:36.615Z,8.10
2024-02-15T20:02:04.065Z,7.45
2024-02-15T20:04:34.622Z,7.80
2024-02-15T20:07:04.355Z,6.63
2024-02-15T20:09:40.425Z,6.32
2024-02-15T20:12:15.181Z,6.10
2024-02-15T20:14:42.831Z,5.82
2024-02-15T20:17:11.814Z,5.40
2024-02-15T20:19:39.532Z,5.10
2024-02-15T20:22:08.532Z,4.88
2024-02-15T20:24:39.048Z,4.78
2024-02-15T20:27:06.240Z,5.70
2024-02-15T20:29:34.160Z,5.88
2024-02-15T20:32:01.173Z,5.47
2024-02-15T20:34:28.368Z,6.05
2024-02-15T20:36:55.346Z,6.03
2024-02-15T20:39:23.003Z,5.90
2024-02-15T20:41:50.753Z,6.70
2024-02-15T20:44:21.086Z,6.20
2024-02-15T20:46:48.013Z,7.00
2024-02-15T20:49:15.258Z,6.13
2024-02-15T20:51:42.411Z,6.93
2024-02-15T20:54:09.414Z,7.07
2024-02-15T20:56:38.095Z,6.78
2024-02-15T20:59:08.610Z,6.25
2024-02-15T21:01:38.081Z,7.03
2024-02-15T21:04:06.902Z,6.15
2024-02-15T21:06:39.047Z,6.63
2024-02-15T21:09:14.589Z,7.50
2024-02-15T21:11:43.381Z,7.23
2024-02-15T21:14:12.523Z,7.63
2024-02-15T21:16:39.391Z,7.68
2024-02-15T21:19:10.639Z,7.30
2024-02-15T21:21:38.265Z,7.35
2024-02-15T21:24:06.958Z,6.40
2024-02-15T21:26:34.369Z,6.75
2024-02-15T21:29:01.285Z,6.35
2024-02-15T21:31:28.151Z,6.55
2024-02-15T21:33:55.678Z,8.05
2024-02-15T21:36:24.163Z,7.55
2024-02-15T21:38:54.372Z,6.75
2024-02-15T21:41:22.525Z,5.70
2024-02-15T21:43:49.452Z,5.40
2024-02-15T21:46:16.528Z,5.35
2024-02-15T21:48:44.005Z,5.28
2024-02-15T21:51:10.968Z,5.55
2024-02-15T21:53:39.544Z,4.60
2024-02-15T21:56:06.759Z,5.20
2024-02-15T21:58:33.646Z,5.00
2024-02-15T22:01:01.391Z,4.68
2024-02-15T22:03:28.389Z,4.53
2024-02-15T22:05:55.406Z,5.18
2024-02-15T22:08:23.142Z,4.10
2024-02-15T22:10:50.615Z,5.20
2024-02-15T22:13:19.292Z,4.90
2024-02-15T22:15:48.768Z,4.78
2024-02-15T22:18:15.984Z,4.03
2024-02-15T22:20:43.107Z,3.70
2024-02-15T22:23:10.595Z,3.58
2024-02-15T22:25:38.898Z,3.88
2024-02-15T22:28:07.145Z,3.28
2024-02-15T22:30:34.049Z,4.22
2024-02-15T22:33:01.141Z,3.90
2024-02-15T22:35:28.258Z,3.95
2024-02-15T22:37:55.539Z,4.22
2024-02-15T22:40:22.513Z,4.40
2024-02-15T22:42:49.570Z,4.15
2024-02-15T22:45:16.660Z,4.40
2024-02-15T22:47:44.896Z,4.55
2024-02-15T22:50:12.661Z,4.88
2024-02-15T22:52:40.522Z,5.20
2024-02-15T22:55:07.830Z,4.95
2024-02-15T22:57:34.783Z,5.25
2024-02-15T23:00:02.292Z,4.60
2024-02-15T23:02:29.624Z,4.50
2024-02-15T23:04:56.754Z,5.05
2024-02-15T23:07:24.933Z,4.82
2024-02-15T23:09:52.143Z,5.25
2024-02-15T23:12:19.094Z,5.05
2024-02-15T23:14:46.098Z,5.10
2024-02-15T23:17:13.235Z,5.22
2024-02-15T23:19:40.989Z,4.10
2024-02-15T23:22:11.506Z,3.45
2024-02-15T23:24:38.916Z,3.28
2024-02-15T23:27:06.857Z,3.33
2024-02-15T23:29:34.013Z,3.40
2024-02-15T23:32:00.876Z,3.40
2024-02-15T23:34:27.762Z,2.83
2024-02-15T23:37:13.126Z,2.80
2024-02-15T23:39:58.584Z,2.85
2024-02-15T23:42:25.686Z,2.60
2024-02-15T23:44:53.061Z,2.70
2024-02-15T23:47:20.097Z,2.78
2024-02-15T23:49:46.942Z,2.53
2024-02-15T23:52:13.851Z,2.70
2024-02-15T23:54:40.777Z,2.45
2024-02-15T23:57:08.067Z,2.92
2024-02-15T23:59:35.229Z,2.00
